sensor_id;sensor_type;location;lat;lon;timestamp;temperature;humidity
83146;DHT22;73037;51.110;4.706;2023-10-31T00:02:11;11.00;82.80
83146;DHT22;73037;51.110;4.706;2023-10-31T00:04:36;11.00;82.90
83146;DHT22;73037;51.110;4.706;2023-10-31T00:07:03;11.00;82.50
83146;DHT22;73037;51.110;4.706;2023-10-31T00:09:28;11.00;82.80
83146;DHT22;73037;51.110;4.706;2023-10-31T00:11:54;11.00;82.90
83146;DHT22;73037;51.110;4.706;2023-10-31T00:14:20;11.00;82.90
83146;DHT22;73037;51.110;4.706;2023-10-31T00:16:46;11.10;83.10
83146;DHT22;73037;51.110;4.706;2023-10-31T00:19:14;11.10;82.70
83146;DHT22;73037;51.110;4.706;2023-10-31T00:21:39;11.10;83.00
83146;DHT22;73037;51.110;4.706;2023-10-31T00:24:05;11.10;82.80
83146;DHT22;73037;51.110;4.706;2023-10-31T00:26:31;11.10;82.30
83146;DHT22;73037;51.110;4.706;2023-10-31T00:28:56;11.10;82.90
83146;DHT22;73037;51.110;4.706;2023-10-31T00:31:22;11.10;82.70
83146;DHT22;73037;51.110;4.706;2023-10-31T00:33:48;11.10;82.60
83146;DHT22;73037;51.110;4.706;2023-10-31T00:36:13;11.10;82.90
83146;DHT22;73037;51.110;4.706;2023-10-31T00:38:39;11.20;82.90
83146;DHT22;73037;51.110;4.706;2023-10-31T00:41:05;11.20;82.90
83146;DHT22;73037;51.110;4.706;2023-10-31T00:43:30;11.20;82.80
83146;DHT22;73037;51.110;4.706;2023-10-31T00:45:56;11.20;82.90
83146;DHT22;73037;51.110;4.706;2023-10-31T00:48:22;11.20;82.80
83146;DHT22;73037;51.110;4.706;2023-10-31T00:50:47;11.20;82.80
83146;DHT22;73037;51.110;4.706;2023-10-31T00:53:13;11.10;82.50
83146;DHT22;73037;51.110;4.706;2023-10-31T00:55:40;11.10;82.80
83146;DHT22;73037;51.110;4.706;2023-10-31T00:58:05;11.20;83.00
83146;DHT22;73037;51.110;4.706;2023-10-31T01:00:31;11.20;82.60
83146;DHT22;73037;51.110;4.706;2023-10-31T01:02:57;11.20;82.90
83146;DHT22;73037;51.110;4.706;2023-10-31T01:05:23;11.10;82.60
83146;DHT22;73037;51.110;4.706;2023-10-31T01:07:48;11.10;83.00
83146;DHT22;73037;51.110;4.706;2023-10-31T01:10:14;11.20;83.00
83146;DHT22;73037;51.110;4.706;2023-10-31T01:12:40;11.10;82.90
83146;DHT22;73037;51.110;4.706;2023-10-31T01:15:06;11.20;83.00
83146;DHT22;73037;51.110;4.706;2023-10-31T01:17:32;11.20;82.90
83146;DHT22;73037;51.110;4.706;2023-10-31T01:19:58;11.20;82.90
83146;DHT22;73037;51.110;4.706;2023-10-31T01:22:24;11.10;82.90
83146;DHT22;73037;51.110;4.706;2023-10-31T01:24:49;11.20;83.10
83146;DHT22;73037;51.110;4.706;2023-10-31T01:27:15;11.10;82.90
83146;DHT22;73037;51.110;4.706;2023-10-31T01:29:40;11.10;83.00
83146;DHT22;73037;51.110;4.706;2023-10-31T01:32:06;11.20;83.10
83146;DHT22;73037;51.110;4.706;2023-10-31T01:34:32;11.20;83.30
83146;DHT22;73037;51.110;4.706;2023-10-31T01:36:58;11.20;83.30
83146;DHT22;73037;51.110;4.706;2023-10-31T01:39:23;11.20;83.30
83146;DHT22;73037;51.110;4.706;2023-10-31T01:41:49;11.20;83.40
83146;DHT22;73037;51.110;4.706;2023-10-31T01:44:15;11.20;83.00
83146;DHT22;73037;51.110;4.706;2023-10-31T01:46:41;11.20;83.30
83146;DHT22;73037;51.110;4.706;2023-10-31T01:49:06;11.20;83.20
83146;DHT22;73037;51.110;4.706;2023-10-31T01:51:32;11.20;83.30
83146;DHT22;73037;51.110;4.706;2023-10-31T01:53:58;11.20;83.20
83146;DHT22;73037;51.110;4.706;2023-10-31T01:56:25;11.20;83.20
83146;DHT22;73037;51.110;4.706;2023-10-31T01:58:52;11.20;83.40
83146;DHT22;73037;51.110;4.706;2023-10-31T02:01:19;11.20;83.20
83146;DHT22;73037;51.110;4.706;2023-10-31T02:03:45;11.20;83.20
83146;DHT22;73037;51.110;4.706;2023-10-31T02:06:11;11.20;83.10
83146;DHT22;73037;51.110;4.706;2023-10-31T02:08:36;11.20;83.20
83146;DHT22;73037;51.110;4.706;2023-10-31T02:11:02;11.20;83.20
83146;DHT22;73037;51.110;4.706;2023-10-31T02:13:29;11.20;82.90
83146;DHT22;73037;51.110;4.706;2023-10-31T02:15:55;11.30;83.30
83146;DHT22;73037;51.110;4.706;2023-10-31T02:18:20;11.30;83.20
83146;DHT22;73037;51.110;4.706;2023-10-31T02:20:46;11.20;83.00
83146;DHT22;73037;51.110;4.706;2023-10-31T02:23:12;11.20;83.10
83146;DHT22;73037;51.110;4.706;2023-10-31T02:25:40;11.20;83.00
83146;DHT22;73037;51.110;4.706;2023-10-31T02:28:06;11.20;83.10
83146;DHT22;73037;51.110;4.706;2023-10-31T02:30:34;11.10;83.00
83146;DHT22;73037;51.110;4.706;2023-10-31T02:33:01;11.20;83.10
83146;DHT22;73037;51.110;4.706;2023-10-31T02:35:27;11.20;83.00
83146;DHT22;73037;51.110;4.706;2023-10-31T02:37:53;11.20;83.00
83146;DHT22;73037;51.110;4.706;2023-10-31T02:40:18;11.30;82.90
83146;DHT22;73037;51.110;4.706;2023-10-31T02:42:44;11.30;82.80
83146;DHT22;73037;51.110;4.706;2023-10-31T02:45:10;11.20;82.80
83146;DHT22;73037;51.110;4.706;2023-10-31T02:47:36;11.20;82.70
83146;DHT22;73037;51.110;4.706;2023-10-31T02:50:01;11.30;82.90
83146;DHT22;73037;51.110;4.706;2023-10-31T02:52:27;11.30;82.80
83146;DHT22;73037;51.110;4.706;2023-10-31T02:54:53;11.20;82.70
83146;DHT22;73037;51.110;4.706;2023-10-31T02:57:18;11.20;82.80
83146;DHT22;73037;51.110;4.706;2023-10-31T02:59:44;11.20;82.60
83146;DHT22;73037;51.110;4.706;2023-10-31T03:02:10;11.20;82.90
83146;DHT22;73037;51.110;4.706;2023-10-31T03:04:37;11.20;82.60
83146;DHT22;73037;51.110;4.706;2023-10-31T03:07:03;11.20;82.80
83146;DHT22;73037;51.110;4.706;2023-10-31T03:09:28;11.10;82.60
83146;DHT22;73037;51.110;4.706;2023-10-31T03:11:54;11.10;82.50
83146;DHT22;73037;51.110;4.706;2023-10-31T03:14:20;11.10;82.60
83146;DHT22;73037;51.110;4.706;2023-10-31T03:16:45;11.10;82.40
83146;DHT22;73037;51.110;4.706;2023-10-31T03:19:11;11.10;82.20
83146;DHT22;73037;51.110;4.706;2023-10-31T03:21:37;11.00;82.40
83146;DHT22;73037;51.110;4.706;2023-10-31T03:24:03;11.00;82.30
83146;DHT22;73037;51.110;4.706;2023-10-31T03:26:29;11.00;82.80
83146;DHT22;73037;51.110;4.706;2023-10-31T03:28:55;11.00;82.50
83146;DHT22;73037;51.110;4.706;2023-10-31T03:31:23;11.00;82.30
83146;DHT22;73037;51.110;4.706;2023-10-31T03:33:49;10.90;82.00
83146;DHT22;73037;51.110;4.706;2023-10-31T03:36:15;10.80;82.40
83146;DHT22;73037;51.110;4.706;2023-10-31T03:38:41;10.80;82.50
83146;DHT22;73037;51.110;4.706;2023-10-31T03:41:08;10.80;82.50
83146;DHT22;73037;51.110;4.706;2023-10-31T03:43:33;10.80;82.80
83146;DHT22;73037;51.110;4.706;2023-10-31T03:46:00;10.80;82.40
83146;DHT22;73037;51.110;4.706;2023-10-31T03:48:26;10.80;82.70
83146;DHT22;73037;51.110;4.706;2023-10-31T03:50:52;10.80;82.50
83146;DHT22;73037;51.110;4.706;2023-10-31T03:53:17;10.80;82.70
83146;DHT22;73037;51.110;4.706;2023-10-31T03:55:43;10.70;82.40
83146;DHT22;73037;51.110;4.706;2023-10-31T03:58:09;10.70;82.40
83146;DHT22;73037;51.110;4.706;2023-10-31T04:00:35;10.70;82.40
83146;DHT22;73037;51.110;4.706;2023-10-31T04:03:00;10.70;82.20
83146;DHT22;73037;51.110;4.706;2023-10-31T04:05:26;10.70;82.60
83146;DHT22;73037;51.110;4.706;2023-10-31T04:07:52;10.60;82.20
83146;DHT22;73037;51.110;4.706;2023-10-31T04:10:19;10.50;82.70
83146;DHT22;73037;51.110;4.706;2023-10-31T04:12:45;10.50;82.20
83146;DHT22;73037;51.110;4.706;2023-10-31T04:15:11;10.50;82.60
83146;DHT22;73037;51.110;4.706;2023-10-31T04:17:38;10.50;82.90
83146;DHT22;73037;51.110;4.706;2023-10-31T04:20:04;10.40;82.50
83146;DHT22;73037;51.110;4.706;2023-10-31T04:22:30;10.30;82.60
83146;DHT22;73037;51.110;4.706;2023-10-31T04:24:55;10.30;82.50
83146;DHT22;73037;51.110;4.706;2023-10-31T04:27:21;10.30;82.60
83146;DHT22;73037;51.110;4.706;2023-10-31T04:29:47;10.30;82.90
83146;DHT22;73037;51.110;4.706;2023-10-31T04:32:13;10.30;82.70
83146;DHT22;73037;51.110;4.706;2023-10-31T04:34:38;10.20;82.80
83146;DHT22;73037;51.110;4.706;2023-10-31T04:37:04;10.20;82.90
83146;DHT22;73037;51.110;4.706;2023-10-31T04:39:30;10.20;82.90
83146;DHT22;73037;51.110;4.706;2023-10-31T04:41:56;10.20;82.80
83146;DHT22;73037;51.110;4.706;2023-10-31T04:44:22;10.20;82.70
83146;DHT22;73037;51.110;4.706;2023-10-31T04:46:48;10.20;82.50
83146;DHT22;73037;51.110;4.706;2023-10-31T04:49:13;10.30;82.80
83146;DHT22;73037;51.110;4.706;2023-10-31T04:51:40;10.30;82.70
83146;DHT22;73037;51.110;4.706;2023-10-31T04:54:06;10.30;82.60
83146;DHT22;73037;51.110;4.706;2023-10-31T04:56:33;10.30;82.60
83146;DHT22;73037;51.110;4.706;2023-10-31T04:58:59;10.40;82.90
83146;DHT22;73037;51.110;4.706;2023-10-31T05:01:25;10.40;82.70
83146;DHT22;73037;51.110;4.706;2023-10-31T05:03:51;10.40;82.40
83146;DHT22;73037;51.110;4.706;2023-10-31T05:06:21;10.40;82.60
83146;DHT22;73037;51.110;4.706;2023-10-31T05:08:47;10.30;82.60
83146;DHT22;73037;51.110;4.706;2023-10-31T05:11:13;10.30;82.10
83146;DHT22;73037;51.110;4.706;2023-10-31T05:13:41;10.20;82.10
83146;DHT22;73037;51.110;4.706;2023-10-31T05:16:07;10.20;82.60
83146;DHT22;73037;51.110;4.706;2023-10-31T05:18:35;10.10;82.50
83146;DHT22;73037;51.110;4.706;2023-10-31T05:21:01;10.10;82.60
83146;DHT22;73037;51.110;4.706;2023-10-31T05:23:27;10.10;82.60
83146;DHT22;73037;51.110;4.706;2023-10-31T05:25:53;10.10;83.00
83146;DHT22;73037;51.110;4.706;2023-10-31T05:28:18;10.10;82.50
83146;DHT22;73037;51.110;4.706;2023-10-31T05:30:44;10.10;82.30
83146;DHT22;73037;51.110;4.706;2023-10-31T05:33:10;10.10;82.40
83146;DHT22;73037;51.110;4.706;2023-10-31T05:35:35;10.10;82.80
83146;DHT22;73037;51.110;4.706;2023-10-31T05:38:01;10.20;82.90
83146;DHT22;73037;51.110;4.706;2023-10-31T05:40:26;10.20;82.50
83146;DHT22;73037;51.110;4.706;2023-10-31T05:42:54;10.20;82.70
83146;DHT22;73037;51.110;4.706;2023-10-31T05:45:20;10.20;82.60
83146;DHT22;73037;51.110;4.706;2023-10-31T05:47:46;10.30;82.60
83146;DHT22;73037;51.110;4.706;2023-10-31T05:50:11;10.30;82.30
83146;DHT22;73037;51.110;4.706;2023-10-31T05:52:37;10.30;82.40
83146;DHT22;73037;51.110;4.706;2023-10-31T05:55:03;10.30;82.60
83146;DHT22;73037;51.110;4.706;2023-10-31T05:57:29;10.30;82.50
83146;DHT22;73037;51.110;4.706;2023-10-31T05:59:54;10.30;82.50
83146;DHT22;73037;51.110;4.706;2023-10-31T06:02:20;10.20;82.40
83146;DHT22;73037;51.110;4.706;2023-10-31T06:04:46;10.30;82.40
83146;DHT22;73037;51.110;4.706;2023-10-31T06:07:11;10.30;82.40
83146;DHT22;73037;51.110;4.706;2023-10-31T06:09:37;10.30;82.80
83146;DHT22;73037;51.110;4.706;2023-10-31T06:12:03;10.30;82.50
83146;DHT22;73037;51.110;4.706;2023-10-31T06:14:29;10.20;81.90
83146;DHT22;73037;51.110;4.706;2023-10-31T06:16:54;10.20;82.00
83146;DHT22;73037;51.110;4.706;2023-10-31T06:19:22;10.20;82.40
83146;DHT22;73037;51.110;4.706;2023-10-31T06:21:47;10.10;82.30
83146;DHT22;73037;51.110;4.706;2023-10-31T06:24:14;10.10;82.30
83146;DHT22;73037;51.110;4.706;2023-10-31T06:26:39;10.10;82.40
83146;DHT22;73037;51.110;4.706;2023-10-31T06:29:05;10.10;82.40
83146;DHT22;73037;51.110;4.706;2023-10-31T06:31:31;10.10;82.10
83146;DHT22;73037;51.110;4.706;2023-10-31T06:33:57;10.00;82.30
83146;DHT22;73037;51.110;4.706;2023-10-31T06:36:22;10.00;82.30
83146;DHT22;73037;51.110;4.706;2023-10-31T06:38:48;10.00;81.90
83146;DHT22;73037;51.110;4.706;2023-10-31T06:41:14;10.00;82.40
83146;DHT22;73037;51.110;4.706;2023-10-31T06:43:40;10.00;82.30
83146;DHT22;73037;51.110;4.706;2023-10-31T06:46:05;9.90;82.60
83146;DHT22;73037;51.110;4.706;2023-10-31T06:48:32;9.90;82.20
83146;DHT22;73037;51.110;4.706;2023-10-31T06:50:58;9.80;82.20
83146;DHT22;73037;51.110;4.706;2023-10-31T06:53:23;9.80;82.40
83146;DHT22;73037;51.110;4.706;2023-10-31T06:55:49;9.80;82.30
83146;DHT22;73037;51.110;4.706;2023-10-31T06:58:15;9.80;82.40
83146;DHT22;73037;51.110;4.706;2023-10-31T07:00:40;9.70;81.90
83146;DHT22;73037;51.110;4.706;2023-10-31T07:03:06;9.70;82.20
83146;DHT22;73037;51.110;4.706;2023-10-31T07:05:37;9.70;82.20
83146;DHT22;73037;51.110;4.706;2023-10-31T07:08:04;9.80;82.40
83146;DHT22;73037;51.110;4.706;2023-10-31T07:10:30;9.80;82.60
83146;DHT22;73037;51.110;4.706;2023-10-31T07:12:56;9.80;82.70
83146;DHT22;73037;51.110;4.706;2023-10-31T07:15:24;9.80;82.60
83146;DHT22;73037;51.110;4.706;2023-10-31T07:17:50;9.90;82.20
83146;DHT22;73037;51.110;4.706;2023-10-31T07:20:15;10.00;82.20
83146;DHT22;73037;51.110;4.706;2023-10-31T07:22:41;10.00;82.20
83146;DHT22;73037;51.110;4.706;2023-10-31T07:25:07;10.00;82.30
83146;DHT22;73037;51.110;4.706;2023-10-31T07:27:33;10.10;82.30
83146;DHT22;73037;51.110;4.706;2023-10-31T07:29:59;10.20;82.40
83146;DHT22;73037;51.110;4.706;2023-10-31T07:32:24;10.30;82.00
83146;DHT22;73037;51.110;4.706;2023-10-31T07:34:51;10.50;81.60
83146;DHT22;73037;51.110;4.706;2023-10-31T07:37:16;10.50;81.90
83146;DHT22;73037;51.110;4.706;2023-10-31T07:39:42;10.50;81.50
83146;DHT22;73037;51.110;4.706;2023-10-31T07:42:08;10.50;81.70
83146;DHT22;73037;51.110;4.706;2023-10-31T07:44:34;10.60;81.90
83146;DHT22;73037;51.110;4.706;2023-10-31T07:47:00;10.70;81.60
83146;DHT22;73037;51.110;4.706;2023-10-31T07:49:25;10.60;81.60
83146;DHT22;73037;51.110;4.706;2023-10-31T07:51:51;10.60;81.10
83146;DHT22;73037;51.110;4.706;2023-10-31T07:54:17;10.70;81.80
83146;DHT22;73037;51.110;4.706;2023-10-31T07:56:43;10.70;81.90
83146;DHT22;73037;51.110;4.706;2023-10-31T07:59:08;10.80;81.70
83146;DHT22;73037;51.110;4.706;2023-10-31T08:01:35;10.80;81.80
83146;DHT22;73037;51.110;4.706;2023-10-31T08:04:01;10.80;80.90
83146;DHT22;73037;51.110;4.706;2023-10-31T08:06:27;10.80;81.60
83146;DHT22;73037;51.110;4.706;2023-10-31T08:08:52;10.80;81.10
83146;DHT22;73037;51.110;4.706;2023-10-31T08:11:18;10.80;81.20
83146;DHT22;73037;51.110;4.706;2023-10-31T08:13:44;10.80;81.50
83146;DHT22;73037;51.110;4.706;2023-10-31T08:16:10;10.80;81.20
83146;DHT22;73037;51.110;4.706;2023-10-31T08:18:35;10.80;81.50
83146;DHT22;73037;51.110;4.706;2023-10-31T08:21:01;10.90;81.50
83146;DHT22;73037;51.110;4.706;2023-10-31T08:23:28;10.90;80.90
83146;DHT22;73037;51.110;4.706;2023-10-31T08:25:54;10.90;81.40
83146;DHT22;73037;51.110;4.706;2023-10-31T08:28:20;11.00;81.30
83146;DHT22;73037;51.110;4.706;2023-10-31T08:30:46;11.10;81.70
83146;DHT22;73037;51.110;4.706;2023-10-31T08:33:13;11.30;80.70
83146;DHT22;73037;51.110;4.706;2023-10-31T08:35:39;11.30;81.20
83146;DHT22;73037;51.110;4.706;2023-10-31T08:38:05;11.30;80.90
83146;DHT22;73037;51.110;4.706;2023-10-31T08:40:31;11.20;81.20
83146;DHT22;73037;51.110;4.706;2023-10-31T08:42:56;11.20;80.90
83146;DHT22;73037;51.110;4.706;2023-10-31T08:45:22;11.30;80.80
83146;DHT22;73037;51.110;4.706;2023-10-31T08:47:48;11.40;81.10
83146;DHT22;73037;51.110;4.706;2023-10-31T08:50:13;11.70;80.90
83146;DHT22;73037;51.110;4.706;2023-10-31T08:52:40;11.90;79.60
83146;DHT22;73037;51.110;4.706;2023-10-31T08:55:06;12.00;80.40
83146;DHT22;73037;51.110;4.706;2023-10-31T08:57:32;12.10;80.70
83146;DHT22;73037;51.110;4.706;2023-10-31T08:59:59;12.20;79.70
83146;DHT22;73037;51.110;4.706;2023-10-31T09:02:25;12.20;79.30
83146;DHT22;73037;51.110;4.706;2023-10-31T09:04:51;12.10;79.80
83146;DHT22;73037;51.110;4.706;2023-10-31T09:07:17;12.00;79.80
83146;DHT22;73037;51.110;4.706;2023-10-31T09:09:43;12.00;80.10
83146;DHT22;73037;51.110;4.706;2023-10-31T09:12:08;12.10;80.70
83146;DHT22;73037;51.110;4.706;2023-10-31T09:14:34;12.20;80.40
83146;DHT22;73037;51.110;4.706;2023-10-31T09:17:01;12.20;80.40
83146;DHT22;73037;51.110;4.706;2023-10-31T09:19:26;12.20;80.00
83146;DHT22;73037;51.110;4.706;2023-10-31T09:21:52;12.20;79.40
83146;DHT22;73037;51.110;4.706;2023-10-31T09:24:18;12.20;80.00
83146;DHT22;73037;51.110;4.706;2023-10-31T09:26:43;12.20;79.90
83146;DHT22;73037;51.110;4.706;2023-10-31T09:29:12;12.20;79.40
83146;DHT22;73037;51.110;4.706;2023-10-31T09:31:38;12.10;80.00
83146;DHT22;73037;51.110;4.706;2023-10-31T09:34:04;12.10;80.20
83146;DHT22;73037;51.110;4.706;2023-10-31T09:36:33;12.10;79.70
83146;DHT22;73037;51.110;4.706;2023-10-31T09:39:02;12.20;80.60
83146;DHT22;73037;51.110;4.706;2023-10-31T09:41:28;12.20;79.80
83146;DHT22;73037;51.110;4.706;2023-10-31T09:43:55;12.20;80.10
83146;DHT22;73037;51.110;4.706;2023-10-31T09:46:21;12.10;80.00
83146;DHT22;73037;51.110;4.706;2023-10-31T09:48:49;12.00;80.00
83146;DHT22;73037;51.110;4.706;2023-10-31T09:51:14;12.10;79.30
83146;DHT22;73037;51.110;4.706;2023-10-31T09:53:41;12.10;80.10
83146;DHT22;73037;51.110;4.706;2023-10-31T09:56:10;12.30;79.70
83146;DHT22;73037;51.110;4.706;2023-10-31T09:58:36;12.30;78.40
83146;DHT22;73037;51.110;4.706;2023-10-31T10:01:02;12.50;80.20
83146;DHT22;73037;51.110;4.706;2023-10-31T10:03:29;12.50;78.30
83146;DHT22;73037;51.110;4.706;2023-10-31T10:05:55;12.50;80.10
83146;DHT22;73037;51.110;4.706;2023-10-31T10:08:23;12.50;80.00
83146;DHT22;73037;51.110;4.706;2023-10-31T10:10:50;12.50;78.60
83146;DHT22;73037;51.110;4.706;2023-10-31T10:13:23;12.50;79.90
83146;DHT22;73037;51.110;4.706;2023-10-31T10:15:51;12.50;79.00
83146;DHT22;73037;51.110;4.706;2023-10-31T10:18:31;12.50;79.70
83146;DHT22;73037;51.110;4.706;2023-10-31T10:20:59;12.50;79.20
83146;DHT22;73037;51.110;4.706;2023-10-31T10:23:26;12.50;79.90
83146;DHT22;73037;51.110;4.706;2023-10-31T10:25:53;12.50;80.10
83146;DHT22;73037;51.110;4.706;2023-10-31T10:28:19;12.50;79.70
83146;DHT22;73037;51.110;4.706;2023-10-31T10:30:46;12.50;78.60
83146;DHT22;73037;51.110;4.706;2023-10-31T10:33:13;12.50;79.90
83146;DHT22;73037;51.110;4.706;2023-10-31T10:35:40;12.80;80.00
83146;DHT22;73037;51.110;4.706;2023-10-31T10:38:13;13.00;78.80
83146;DHT22;73037;51.110;4.706;2023-10-31T10:40:40;13.10;79.60
83146;DHT22;73037;51.110;4.706;2023-10-31T10:43:14;13.30;79.70
83146;DHT22;73037;51.110;4.706;2023-10-31T10:45:43;13.50;78.90
83146;DHT22;73037;51.110;4.706;2023-10-31T10:48:14;13.70;78.60
83146;DHT22;73037;51.110;4.706;2023-10-31T10:50:42;13.90;78.30
83146;DHT22;73037;51.110;4.706;2023-10-31T10:53:21;14.10;75.20
83146;DHT22;73037;51.110;4.706;2023-10-31T10:55:51;14.20;76.90
83146;DHT22;73037;51.110;4.706;2023-10-31T10:59:35;14.20;75.80
83146;DHT22;73037;51.110;4.706;2023-10-31T11:01:25;14.10;73.70
83146;DHT22;73037;51.110;4.706;2023-10-31T11:03:55;13.90;75.30
83146;DHT22;73037;51.110;4.706;2023-10-31T11:06:21;13.90;75.70
83146;DHT22;73037;51.110;4.706;2023-10-31T11:08:47;13.90;76.90
83146;DHT22;73037;51.110;4.706;2023-10-31T11:11:13;13.80;74.20
83146;DHT22;73037;51.110;4.706;2023-10-31T11:13:43;13.60;76.20
83146;DHT22;73037;51.110;4.706;2023-10-31T11:16:15;13.50;75.50
83146;DHT22;73037;51.110;4.706;2023-10-31T11:18:43;13.50;75.10
83146;DHT22;73037;51.110;4.706;2023-10-31T11:21:09;13.50;77.20
83146;DHT22;73037;51.110;4.706;2023-10-31T11:23:35;13.50;75.80
83146;DHT22;73037;51.110;4.706;2023-10-31T11:26:01;13.50;75.10
83146;DHT22;73037;51.110;4.706;2023-10-31T11:28:27;13.40;76.30
83146;DHT22;73037;51.110;4.706;2023-10-31T11:30:52;13.30;76.20
83146;DHT22;73037;51.110;4.706;2023-10-31T11:33:24;13.30;76.40
83146;DHT22;73037;51.110;4.706;2023-10-31T11:35:51;13.50;75.80
83146;DHT22;73037;51.110;4.706;2023-10-31T11:38:30;13.50;74.70
83146;DHT22;73037;51.110;4.706;2023-10-31T11:40:59;13.50;74.00
83146;DHT22;73037;51.110;4.706;2023-10-31T11:43:26;13.50;76.00
83146;DHT22;73037;51.110;4.706;2023-10-31T11:46:00;13.50;73.40
83146;DHT22;73037;51.110;4.706;2023-10-31T11:48:50;13.50;76.10
83146;DHT22;73037;51.110;4.706;2023-10-31T11:51:17;13.70;76.20
83146;DHT22;73037;51.110;4.706;2023-10-31T11:53:44;13.90;74.40
83146;DHT22;73037;51.110;4.706;2023-10-31T11:56:10;13.90;75.30
83146;DHT22;73037;51.110;4.706;2023-10-31T11:58:36;13.90;74.80
83146;DHT22;73037;51.110;4.706;2023-10-31T12:01:04;13.70;73.70
83146;DHT22;73037;51.110;4.706;2023-10-31T12:03:56;13.50;76.60
83146;DHT22;73037;51.110;4.706;2023-10-31T12:06:22;13.30;73.30
83146;DHT22;73037;51.110;4.706;2023-10-31T12:08:49;13.30;76.60
83146;DHT22;73037;51.110;4.706;2023-10-31T12:11:18;13.10;75.80
83146;DHT22;73037;51.110;4.706;2023-10-31T12:13:59;13.10;75.50
83146;DHT22;73037;51.110;4.706;2023-10-31T12:16:29;13.10;76.50
83146;DHT22;73037;51.110;4.706;2023-10-31T12:19:05;13.10;75.60
83146;DHT22;73037;51.110;4.706;2023-10-31T12:21:39;13.10;75.30
83146;DHT22;73037;51.110;4.706;2023-10-31T12:24:13;13.00;75.40
83146;DHT22;73037;51.110;4.706;2023-10-31T12:26:39;13.00;75.30
83146;DHT22;73037;51.110;4.706;2023-10-31T12:29:10;13.00;75.70
83146;DHT22;73037;51.110;4.706;2023-10-31T12:31:41;12.80;75.10
83146;DHT22;73037;51.110;4.706;2023-10-31T12:34:07;12.70;75.20
83146;DHT22;73037;51.110;4.706;2023-10-31T12:36:35;12.60;75.40
83146;DHT22;73037;51.110;4.706;2023-10-31T12:39:02;12.50;76.40
83146;DHT22;73037;51.110;4.706;2023-10-31T12:41:28;12.50;75.80
83146;DHT22;73037;51.110;4.706;2023-10-31T12:43:54;12.50;77.70
83146;DHT22;73037;51.110;4.706;2023-10-31T12:46:30;12.50;77.20
83146;DHT22;73037;51.110;4.706;2023-10-31T12:48:57;12.50;76.60
83146;DHT22;73037;51.110;4.706;2023-10-31T12:51:22;12.50;78.20
83146;DHT22;73037;51.110;4.706;2023-10-31T12:53:52;12.50;78.10
83146;DHT22;73037;51.110;4.706;2023-10-31T12:56:40;12.40;78.10
83146;DHT22;73037;51.110;4.706;2023-10-31T12:59:10;12.30;78.90
83146;DHT22;73037;51.110;4.706;2023-10-31T13:01:44;12.30;79.10
83146;DHT22;73037;51.110;4.706;2023-10-31T13:04:10;12.30;78.90
83146;DHT22;73037;51.110;4.706;2023-10-31T13:06:37;12.30;79.10
83146;DHT22;73037;51.110;4.706;2023-10-31T13:09:03;12.20;80.20
83146;DHT22;73037;51.110;4.706;2023-10-31T13:11:32;12.20;80.70
83146;DHT22;73037;51.110;4.706;2023-10-31T13:13:58;12.20;79.60
83146;DHT22;73037;51.110;4.706;2023-10-31T13:16:24;12.00;80.00
83146;DHT22;73037;51.110;4.706;2023-10-31T13:18:55;12.00;80.90
83146;DHT22;73037;51.110;4.706;2023-10-31T13:21:21;11.90;82.20
83146;DHT22;73037;51.110;4.706;2023-10-31T13:23:46;11.90;82.90
83146;DHT22;73037;51.110;4.706;2023-10-31T13:26:14;11.90;83.40
83146;DHT22;73037;51.110;4.706;2023-10-31T13:28:39;11.90;83.50
83146;DHT22;73037;51.110;4.706;2023-10-31T13:31:06;11.90;82.50
83146;DHT22;73037;51.110;4.706;2023-10-31T13:33:33;11.90;83.20
83146;DHT22;73037;51.110;4.706;2023-10-31T13:35:59;11.90;83.30
83146;DHT22;73037;51.110;4.706;2023-10-31T13:38:24;11.90;82.70
83146;DHT22;73037;51.110;4.706;2023-10-31T13:40:50;11.90;83.20
83146;DHT22;73037;51.110;4.706;2023-10-31T13:43:16;11.90;83.20
83146;DHT22;73037;51.110;4.706;2023-10-31T13:45:41;12.00;83.20
83146;DHT22;73037;51.110;4.706;2023-10-31T13:48:07;12.00;83.40
83146;DHT22;73037;51.110;4.706;2023-10-31T13:50:33;12.00;83.10
83146;DHT22;73037;51.110;4.706;2023-10-31T13:52:59;12.10;83.30
83146;DHT22;73037;51.110;4.706;2023-10-31T13:55:24;12.10;83.40
83146;DHT22;73037;51.110;4.706;2023-10-31T13:57:51;12.10;83.20
83146;DHT22;73037;51.110;4.706;2023-10-31T14:00:16;12.10;82.90
83146;DHT22;73037;51.110;4.706;2023-10-31T14:02:42;12.00;82.30
83146;DHT22;73037;51.110;4.706;2023-10-31T14:05:08;12.00;83.00
83146;DHT22;73037;51.110;4.706;2023-10-31T14:07:34;12.00;83.20
83146;DHT22;73037;51.110;4.706;2023-10-31T14:10:00;12.00;83.10
83146;DHT22;73037;51.110;4.706;2023-10-31T14:12:26;12.10;83.10
83146;DHT22;73037;51.110;4.706;2023-10-31T14:14:55;12.10;83.20
83146;DHT22;73037;51.110;4.706;2023-10-31T14:17:21;12.20;83.10
83146;DHT22;73037;51.110;4.706;2023-10-31T14:19:48;12.30;83.20
83146;DHT22;73037;51.110;4.706;2023-10-31T14:22:14;12.40;82.40
83146;DHT22;73037;51.110;4.706;2023-10-31T14:24:39;12.50;82.90
83146;DHT22;73037;51.110;4.706;2023-10-31T14:27:05;12.80;82.60
83146;DHT22;73037;51.110;4.706;2023-10-31T14:29:31;12.90;81.60
83146;DHT22;73037;51.110;4.706;2023-10-31T14:31:57;13.00;81.60
83146;DHT22;73037;51.110;4.706;2023-10-31T14:34:23;13.00;81.60
83146;DHT22;73037;51.110;4.706;2023-10-31T14:36:49;13.00;81.60
83146;DHT22;73037;51.110;4.706;2023-10-31T14:39:15;13.00;82.10
83146;DHT22;73037;51.110;4.706;2023-10-31T14:41:40;13.10;82.00
83146;DHT22;73037;51.110;4.706;2023-10-31T14:44:06;13.00;81.50
83146;DHT22;73037;51.110;4.706;2023-10-31T14:46:33;13.00;82.00
83146;DHT22;73037;51.110;4.706;2023-10-31T14:48:59;12.90;80.90
83146;DHT22;73037;51.110;4.706;2023-10-31T14:51:25;12.80;81.50
83146;DHT22;73037;51.110;4.706;2023-10-31T14:53:51;12.70;81.80
83146;DHT22;73037;51.110;4.706;2023-10-31T14:56:17;12.70;81.90
83146;DHT22;73037;51.110;4.706;2023-10-31T14:58:42;12.70;81.50
83146;DHT22;73037;51.110;4.706;2023-10-31T15:01:08;12.80;81.80
83146;DHT22;73037;51.110;4.706;2023-10-31T15:03:34;12.60;81.20
83146;DHT22;73037;51.110;4.706;2023-10-31T15:05:59;12.60;82.30
83146;DHT22;73037;51.110;4.706;2023-10-31T15:08:25;12.60;82.10
83146;DHT22;73037;51.110;4.706;2023-10-31T15:10:52;12.70;82.40
83146;DHT22;73037;51.110;4.706;2023-10-31T15:13:17;12.60;81.30
83146;DHT22;73037;51.110;4.706;2023-10-31T15:15:43;12.60;82.50
83146;DHT22;73037;51.110;4.706;2023-10-31T15:18:09;12.50;80.70
83146;DHT22;73037;51.110;4.706;2023-10-31T15:20:35;12.50;81.80
83146;DHT22;73037;51.110;4.706;2023-10-31T15:23:01;12.40;82.30
83146;DHT22;73037;51.110;4.706;2023-10-31T15:25:27;12.40;82.40
83146;DHT22;73037;51.110;4.706;2023-10-31T15:27:52;12.30;81.80
83146;DHT22;73037;51.110;4.706;2023-10-31T15:30:18;12.30;82.20